createdAt,value
2023-03-05T00:01:12.248Z,52.72
2023-03-05T00:03:20.642Z,50.25
2023-03-05T00:05:27.676Z,55.63
2023-03-05T00:07:34.551Z,55.58
2023-03-05T00:09:41.567Z,53.00
2023-03-05T00:11:48.604Z,51.72
2023-03-05T00:13:57.302Z,55.50
2023-03-05T00:16:06.613Z,55.53
2023-03-05T00:18:13.680Z,46.90
2023-03-05T00:20:22.449Z,55.70
2023-03-05T00:22:29.789Z,50.63
2023-03-05T00:24:36.605Z,53.53
2023-03-05T00:26:44.094Z,54.17
2023-03-05T00:28:52.758Z,53.60
2023-03-05T00:31:03.849Z,49.75
2023-03-05T00:33:11.073Z,50.13
2023-03-05T00:35:18.251Z,51.05
2023-03-05T00:37:26.612Z,53.20
2023-03-05T00:39:34.326Z,52.15
2023-03-05T00:41:41.332Z,51.30
2023-03-05T00:43:48.515Z,52.55
2023-03-05T00:45:55.235Z,50.20
2023-03-05T00:48:02.527Z,44.15
2023-03-05T00:50:10.729Z,49.50
2023-03-05T00:52:17.803Z,41.42
2023-03-05T00:54:26.268Z,37.92
2023-03-05T00:56:33.506Z,39.78
2023-03-05T00:58:40.217Z,36.22
2023-03-05T01:00:47.093Z,35.53
2023-03-05T01:02:53.914Z,38.00
2023-03-05T01:05:00.963Z,33.28
2023-03-05T01:07:08.063Z,31.02
2023-03-05T01:09:15.243Z,33.80
2023-03-05T01:11:23.755Z,36.30
2023-03-05T01:13:31.084Z,30.60
2023-03-05T01:15:38.111Z,31.17
2023-03-05T01:17:45.241Z,35.22
2023-03-05T01:19:52.167Z,35.90
2023-03-05T01:21:59.359Z,32.35
2023-03-05T01:24:06.780Z,31.45
2023-03-05T01:26:13.604Z,34.80
2023-03-05T01:28:22.220Z,28.55
2023-03-05T01:30:29.041Z,36.58
2023-03-05T01:32:36.509Z,31.98
2023-03-05T01:34:43.913Z,32.83
2023-03-05T01:36:52.073Z,34.97
2023-03-05T01:38:58.841Z,35.22
2023-03-05T01:41:05.979Z,32.70
2023-03-05T01:43:30.409Z,32.08
2023-03-05T01:45:37.626Z,33.60
2023-03-05T01:47:45.185Z,28.80
2023-03-05T01:49:52.569Z,34.97
2023-03-05T01:52:05.641Z,28.60
2023-03-05T01:54:15.020Z,29.92
2023-03-05T01:56:22.293Z,31.30
2023-03-05T01:58:31.482Z,27.38
2023-03-05T02:00:42.707Z,29.52
2023-03-05T02:02:52.040Z,27.35
2023-03-05T02:05:03.625Z,29.20
2023-03-05T02:07:11.830Z,28.42
2023-03-05T02:09:18.651Z,29.05
2023-03-05T02:11:26.041Z,31.08
2023-03-05T02:13:39.572Z,28.25
2023-03-05T02:15:48.342Z,33.00
2023-03-05T02:17:55.681Z,28.23
2023-03-05T02:20:12.798Z,30.50
2023-03-05T02:22:22.022Z,31.73
2023-03-05T02:24:40.518Z,28.00
2023-03-05T02:26:49.858Z,30.27
2023-03-05T02:28:59.951Z,28.42
2023-03-05T02:31:12.765Z,27.67
2023-03-05T02:33:21.123Z,28.65
2023-03-05T02:35:28.529Z,32.47
2023-03-05T02:37:38.250Z,28.98
2023-03-05T02:39:46.158Z,30.55
2023-03-05T02:41:53.329Z,29.55
2023-03-05T02:44:00.415Z,27.38
2023-03-05T02:46:07.880Z,32.58
2023-03-05T02:48:14.677Z,35.42
2023-03-05T02:50:22.164Z,28.55
2023-03-05T02:52:29.598Z,34.63
2023-03-05T02:54:38.200Z,28.08
2023-03-05T02:56:45.140Z,31.92
2023-03-05T02:58:52.220Z,31.38
2023-03-05T03:00:59.034Z,32.45
2023-03-05T03:03:06.025Z,29.98
2023-03-05T03:05:13.308Z,32.22
2023-03-05T03:07:20.585Z,32.25
2023-03-05T03:09:27.716Z,30.73
2023-03-05T03:11:36.539Z,29.55
2023-03-05T03:13:43.462Z,33.13
2023-03-05T03:15:50.751Z,31.52
2023-03-05T03:17:58.234Z,30.42
2023-03-05T03:20:05.989Z,31.65
2023-03-05T03:22:13.917Z,32.42
2023-03-05T03:24:20.810Z,35.83
2023-03-05T03:26:28.430Z,31.88
2023-03-05T03:28:36.796Z,31.00
2023-03-05T03:30:43.694Z,30.45
2023-03-05T03:32:50.562Z,32.88
2023-03-05T03:34:57.574Z,29.70
2023-03-05T03:37:04.570Z,31.77
2023-03-05T03:39:12.615Z,25.83
2023-03-05T03:41:20.003Z,32.40
2023-03-05T03:43:27.903Z,28.45
2023-03-05T03:45:36.315Z,31.08
2023-03-05T03:47:43.299Z,25.45
2023-03-05T03:49:50.014Z,30.80
2023-03-05T03:51:59.136Z,29.52
2023-03-05T03:54:06.267Z,27.73
2023-03-05T03:56:13.352Z,28.60
2023-03-05T03:58:20.236Z,29.25
2023-03-05T04:00:27.403Z,29.60
2023-03-05T04:02:35.934Z,26.27
2023-03-05T04:04:43.099Z,28.38
2023-03-05T04:06:49.823Z,29.52
2023-03-05T04:08:56.846Z,30.25
2023-03-05T04:11:05.207Z,29.73
2023-03-05T04:13:12.284Z,27.58
2023-03-05T04:15:18.956Z,32.97
2023-03-05T04:17:26.190Z,29.92
2023-03-05T04:19:34.803Z,28.17
2023-03-05T04:21:42.089Z,29.98
2023-03-05T04:23:48.755Z,28.58
2023-03-05T04:25:55.685Z,27.00
2023-03-05T04:28:02.503Z,28.85
2023-03-05T04:30:11.374Z,28.63
2023-03-05T04:32:24.081Z,29.05
2023-03-05T04:34:31.218Z,27.77
2023-03-05T04:36:39.776Z,26.48
2023-03-05T04:38:46.449Z,29.20
2023-03-05T04:40:53.524Z,26.50
2023-03-05T04:43:00.207Z,32.40
2023-03-05T04:45:07.779Z,25.85
2023-03-05T04:47:14.760Z,26.67
2023-03-05T04:49:21.443Z,25.40
2023-03-05T04:51:28.611Z,28.05
2023-03-05T04:53:37.179Z,28.15
2023-03-05T04:55:44.473Z,31.48
2023-03-05T04:57:51.232Z,26.15
2023-03-05T04:59:58.361Z,26.52
2023-03-05T05:02:05.290Z,29.00
2023-03-05T05:04:12.523Z,27.20
2023-03-05T05:06:19.548Z,30.55
2023-03-05T05:08:26.665Z,27.35
2023-03-05T05:10:35.447Z,31.42
2023-03-05T05:12:42.537Z,31.42
2023-03-05T05:14:49.660Z,30.30
2023-03-05T05:16:56.898Z,27.05
2023-03-05T05:19:03.895Z,28.80
2023-03-05T05:21:15.446Z,29.88
2023-03-05T05:23:22.225Z,28.65
2023-03-05T05:25:29.099Z,29.83
2023-03-05T05:27:37.616Z,27.35
2023-03-05T05:29:44.713Z,26.77
2023-03-05T05:31:51.477Z,29.55
2023-03-05T05:33:58.489Z,30.85
2023-03-05T05:36:06.800Z,28.65
2023-03-05T05:38:13.830Z,27.63
2023-03-05T05:40:20.704Z,30.65
2023-03-05T05:42:30.602Z,31.80
2023-03-05T05:44:39.015Z,31.13
2023-03-05T05:46:46.024Z,31.63
2023-03-05T05:48:53.020Z,26.05
2023-03-05T05:51:00.304Z,28.73
2023-03-05T05:53:07.282Z,28.35
2023-03-05T05:55:15.229Z,26.77
2023-03-05T05:57:22.042Z,28.05
2023-03-05T05:59:29.340Z,28.77
2023-03-05T06:01:38.399Z,29.70
2023-03-05T06:03:45.444Z,28.80
2023-03-05T06:05:52.878Z,28.80
2023-03-05T06:07:59.844Z,27.23
2023-03-05T06:10:07.140Z,27.20
2023-03-05T06:12:14.318Z,29.73
2023-03-05T06:14:20.992Z,29.00
2023-03-05T06:16:28.827Z,29.77
2023-03-05T06:18:38.374Z,26.92
2023-03-05T06:20:44.991Z,31.27
2023-03-05T06:22:51.917Z,28.60
2023-03-05T06:24:58.793Z,28.77
2023-03-05T06:27:06.487Z,28.20
2023-03-05T06:29:13.367Z,28.83
2023-03-05T06:31:22.986Z,31.25
2023-03-05T06:33:29.885Z,30.77
2023-03-05T06:35:40.454Z,30.20
2023-03-05T06:37:47.157Z,32.47
2023-03-05T06:39:54.136Z,30.70
2023-03-05T06:42:01.015Z,32.10
2023-03-05T06:44:08.394Z,31.98
2023-03-05T06:46:17.941Z,28.95
2023-03-05T06:48:25.520Z,32.10
2023-03-05T06:50:32.499Z,31.88
2023-03-05T06:52:42.056Z,30.38
2023-03-05T06:54:48.960Z,30.67
2023-03-05T06:56:55.939Z,30.20
2023-03-05T06:59:02.762Z,31.10
2023-03-05T07:01:10.412Z,30.77
2023-03-05T07:03:17.780Z,30.98
2023-03-05T07:05:24.918Z,34.08
2023-03-05T07:07:31.639Z,32.67
2023-03-05T07:09:44.043Z,35.95
2023-03-05T07:11:50.972Z,33.35
2023-03-05T07:13:57.638Z,35.35
2023-03-05T07:16:09.749Z,33.28
2023-03-05T07:20:22.921Z,32.70
2023-03-05T07:22:29.899Z,32.90
2023-03-05T07:24:38.616Z,35.03
2023-03-05T07:26:47.403Z,36.15
2023-03-05T07:28:55.035Z,36.40
2023-03-05T07:31:03.534Z,37.33
2023-03-05T07:33:10.617Z,36.53
2023-03-05T07:35:17.344Z,35.35
2023-03-05T07:37:24.368Z,38.38
2023-03-05T07:39:31.347Z,38.80
2023-03-05T07:41:40.321Z,42.67
2023-03-05T07:43:49.611Z,39.78
2023-03-05T07:46:13.069Z,40.10
2023-03-05T07:50:44.998Z,38.40
2023-03-05T07:53:11.994Z,34.78
2023-03-05T07:55:34.936Z,38.92
2023-03-05T07:57:49.596Z,37.30
2023-03-05T08:00:15.105Z,41.63
2023-03-05T08:02:37.099Z,42.95
2023-03-05T08:04:54.968Z,36.70
2023-03-05T08:07:13.872Z,42.83
2023-03-05T08:09:33.212Z,37.60
2023-03-05T08:16:23.902Z,36.17
2023-03-05T08:18:31.357Z,41.38
2023-03-05T08:20:39.303Z,36.67
2023-03-05T08:22:46.436Z,38.05
2023-03-05T08:24:53.194Z,36.25
2023-03-05T08:27:00.695Z,38.00
2023-03-05T08:29:09.156Z,36.22
2023-03-05T08:31:17.809Z,38.78
2023-03-05T08:33:24.708Z,36.35
2023-03-05T08:35:32.263Z,35.78
2023-03-05T08:37:39.265Z,39.17
2023-03-05T08:39:46.378Z,38.40
2023-03-05T08:41:53.071Z,37.00
2023-03-05T08:44:00.051Z,39.90
2023-03-05T08:46:09.120Z,38.45
2023-03-05T08:48:16.300Z,38.72
2023-03-05T08:50:24.034Z,37.80
2023-03-05T08:52:31.124Z,37.35
2023-03-05T08:54:39.696Z,36.67
2023-03-05T08:56:47.128Z,35.78
2023-03-05T08:58:54.052Z,37.95
2023-03-05T09:01:01.232Z,38.35
2023-03-05T09:03:09.667Z,35.00
2023-03-05T09:05:16.571Z,36.22
2023-03-05T09:07:23.239Z,35.00
2023-03-05T09:09:31.086Z,37.15
2023-03-05T09:11:37.807Z,39.65
2023-03-05T09:13:45.039Z,37.30
2023-03-05T09:15:58.529Z,39.25
2023-03-05T09:18:05.546Z,38.60
2023-03-05T09:20:16.470Z,39.65
2023-03-05T09:22:23.709Z,36.58
2023-03-05T09:24:30.572Z,41.47
2023-03-05T09:26:37.753Z,34.75
2023-03-05T09:28:45.140Z,39.13
2023-03-05T09:30:52.166Z,38.65
2023-03-05T09:32:58.889Z,35.90
2023-03-05T09:35:06.127Z,33.63
2023-03-05T09:37:14.481Z,39.20
2023-03-05T09:39:21.356Z,35.85
2023-03-05T09:41:38.060Z,36.67
2023-03-05T09:43:55.330Z,36.58
2023-03-05T09:46:21.967Z,37.85
2023-03-05T09:48:41.947Z,35.42
2023-03-05T09:50:53.947Z,36.03
2023-03-05T09:53:08.024Z,34.35
2023-03-05T09:55:20.492Z,39.00
2023-03-05T09:57:32.075Z,34.95
2023-03-05T09:59:49.344Z,38.92
2023-03-05T10:01:59.188Z,41.25
2023-03-05T10:04:12.615Z,35.72
2023-03-05T10:06:24.882Z,36.30
2023-03-05T10:08:41.835Z,37.28
2023-03-05T10:10:52.542Z,40.15
2023-03-05T10:13:03.168Z,41.15
2023-03-05T10:15:17.660Z,38.42
2023-03-05T10:18:02.215Z,38.20
2023-03-05T10:20:22.665Z,36.55
2023-03-05T10:22:34.090Z,39.63
2023-03-05T10:24:50.231Z,38.90
2023-03-05T10:27:04.052Z,39.13
2023-03-05T10:29:25.997Z,39.03
2023-03-05T10:31:49.241Z,41.70
2023-03-05T10:34:10.160Z,40.92
2023-03-05T10:36:37.155Z,44.57
2023-03-05T10:39:26.882Z,44.78
2023-03-05T10:41:42.565Z,47.50
2023-03-05T10:43:57.937Z,43.35
2023-03-05T10:46:06.472Z,45.00
2023-03-05T10:48:23.110Z,45.10
2023-03-05T10:50:32.231Z,45.83
2023-03-05T10:52:47.606Z,43.53
2023-03-05T10:54:54.688Z,46.15
2023-03-05T10:57:27.061Z,43.78
2023-03-05T10:59:35.376Z,42.45
2023-03-05T11:01:42.094Z,44.78
2023-03-05T11:03:58.232Z,42.20
2023-03-05T11:06:05.969Z,41.13
2023-03-05T11:08:33.687Z,44.17
2023-03-05T11:10:40.577Z,43.22
2023-03-05T11:12:50.041Z,41.85
2023-03-05T11:15:08.740Z,39.35
2023-03-05T11:17:33.691Z,44.15
2023-03-05T11:19:40.615Z,38.83
2023-03-05T11:21:48.710Z,40.53
2023-03-05T11:24:09.210Z,37.40
2023-03-05T11:26:25.608Z,39.80
2023-03-05T11:28:36.842Z,40.85
2023-03-05T11:30:44.956Z,42.47
2023-03-05T11:32:51.663Z,41.92
2023-03-05T11:34:59.307Z,45.70
2023-03-05T11:37:09.097Z,47.83
2023-03-05T11:39:20.427Z,44.40
2023-03-05T11:41:41.533Z,47.58
2023-03-05T11:43:50.966Z,53.25
2023-03-05T11:46:03.492Z,54.60
2023-03-05T11:48:15.160Z,51.78
2023-03-05T11:50:27.417Z,56.88
2023-03-05T11:54:51.145Z,51.88
2023-03-05T11:56:58.531Z,58.20
2023-03-05T11:59:10.120Z,58.67
2023-03-05T12:01:19.915Z,64.35
2023-03-05T12:03:32.144Z,68.35
2023-03-05T12:07:50.575Z,71.13
2023-03-05T12:09:57.710Z,69.53
2023-03-05T12:12:11.285Z,66.60
2023-03-05T12:14:26.530Z,75.70
2023-03-05T12:16:37.941Z,62.47
2023-03-05T12:18:55.871Z,65.80
2023-03-05T12:21:10.681Z,62.67
2023-03-05T12:23:19.860Z,67.22
2023-03-05T12:25:35.029Z,61.58
2023-03-05T12:27:42.362Z,61.63
2023-03-05T12:29:53.336Z,60.25
2023-03-05T12:32:00.211Z,68.15
2023-03-05T12:34:39.652Z,67.20
2023-03-05T12:36:46.727Z,66.05
2023-03-05T12:38:54.479Z,70.55
2023-03-05T12:41:40.633Z,69.57
2023-03-05T12:43:47.335Z,64.38
2023-03-05T12:46:15.821Z,66.10
2023-03-05T12:48:47.503Z,67.95
2023-03-05T12:51:00.752Z,60.22
2023-03-05T12:53:15.355Z,57.33
2023-03-05T12:55:26.427Z,61.88
2023-03-05T12:57:34.276Z,59.92
2023-03-05T12:59:46.678Z,56.78
2023-03-05T13:02:00.315Z,58.65
2023-03-05T13:04:12.202Z,59.38
2023-03-05T13:06:31.160Z,52.25
2023-03-05T13:08:38.747Z,60.30
2023-03-05T13:10:45.722Z,65.55
2023-03-05T13:12:55.617Z,66.25
2023-03-05T13:15:07.564Z,67.22
2023-03-05T13:17:54.985Z,66.45
2023-03-05T13:20:03.752Z,61.42
2023-03-05T13:22:15.286Z,64.63
2023-03-05T13:24:23.189Z,69.57
2023-03-05T13:26:32.259Z,77.38
2023-03-05T13:28:41.055Z,84.60
2023-03-05T13:30:53.532Z,92.20
2023-03-05T13:33:05.720Z,80.03
2023-03-05T13:35:16.549Z,78.18
2023-03-05T13:37:25.061Z,73.63
2023-03-05T13:39:36.651Z,71.82
2023-03-05T13:41:43.535Z,66.85
2023-03-05T13:43:51.992Z,70.55
2023-03-05T13:45:59.643Z,68.45
2023-03-05T13:48:09.675Z,66.38
2023-03-05T13:50:28.673Z,61.95
2023-03-05T13:52:37.143Z,63.88
2023-03-05T13:54:44.988Z,65.38
2023-03-05T13:56:57.549Z,67.97
2023-03-05T13:59:04.422Z,61.83
2023-03-05T14:01:18.178Z,63.13
2023-03-05T14:03:30.463Z,63.80
2023-03-05T14:05:37.485Z,62.15
2023-03-05T14:07:45.845Z,61.33
2023-03-05T14:09:54.869Z,58.15
2023-03-05T14:12:07.177Z,62.67
2023-03-05T14:14:20.138Z,64.88
2023-03-05T14:16:33.608Z,67.22
2023-03-05T14:18:55.403Z,67.22
2023-03-05T14:21:05.746Z,64.63
2023-03-05T14:23:28.802Z,55.08
2023-03-05T14:25:39.610Z,55.42
2023-03-05T14:27:51.259Z,62.13
2023-03-05T14:29:58.386Z,61.15
2023-03-05T14:32:09.488Z,64.43
2023-03-05T14:34:27.493Z,66.63
2023-03-05T14:36:35.938Z,59.30
2023-03-05T14:38:46.418Z,87.13
2023-03-05T14:40:54.063Z,79.60
2023-03-05T14:43:02.317Z,69.53
2023-03-05T14:45:16.775Z,68.20
2023-03-05T14:47:23.911Z,66.25
2023-03-05T14:49:33.140Z,62.45
2023-03-05T14:51:43.179Z,59.35
2023-03-05T14:53:52.050Z,51.58
2023-03-05T14:55:59.900Z,49.90
2023-03-05T14:58:14.301Z,52.35
2023-03-05T15:00:23.175Z,49.50
2023-03-05T15:02:31.613Z,56.17
2023-03-05T15:04:41.580Z,58.28
2023-03-05T15:06:52.243Z,50.42
2023-03-05T15:08:59.322Z,48.55
2023-03-05T15:11:08.688Z,41.30
2023-03-05T15:13:17.318Z,42.35
2023-03-05T15:15:25.524Z,42.28
2023-03-05T15:17:38.643Z,41.72
2023-03-05T15:19:48.177Z,38.55
2023-03-05T15:21:55.308Z,35.95
2023-03-05T15:24:03.513Z,41.92
2023-03-05T15:26:12.079Z,39.55
2023-03-05T15:28:19.675Z,39.05
2023-03-05T15:30:28.540Z,42.47
2023-03-05T15:32:35.762Z,44.03
2023-03-05T15:34:42.805Z,39.63
2023-03-05T15:36:51.775Z,37.83
2023-03-05T15:38:58.905Z,42.90
2023-03-05T15:41:06.239Z,41.85
2023-03-05T15:43:13.686Z,41.58
2023-03-05T15:45:21.168Z,39.50
2023-03-05T15:47:28.349Z,43.40
2023-03-05T15:49:35.684Z,45.88
2023-03-05T15:51:42.775Z,41.72
2023-03-05T15:53:51.840Z,39.03
2023-03-05T15:55:58.867Z,45.35
2023-03-05T15:58:06.615Z,46.05
2023-03-05T16:00:16.097Z,50.17
2023-03-05T16:02:23.592Z,47.17
2023-03-05T16:04:31.282Z,48.95
2023-03-05T16:06:38.925Z,46.40
2023-03-05T16:08:46.986Z,48.13
2023-03-05T16:10:56.004Z,44.55
2023-03-05T16:13:07.024Z,46.03
2023-03-05T16:15:17.024Z,40.97
2023-03-05T16:17:25.792Z,39.88
2023-03-05T16:19:33.794Z,38.40
2023-03-05T16:21:41.036Z,39.30
2023-03-05T16:23:48.362Z,42.97
2023-03-05T16:25:58.676Z,40.75
2023-03-05T16:28:07.180Z,49.45
2023-03-05T16:30:17.334Z,38.70
2023-03-05T16:32:24.694Z,38.40
2023-03-05T16:34:31.730Z,36.70
2023-03-05T16:36:39.136Z,40.63
2023-03-05T16:38:46.163Z,38.10
2023-03-05T16:41:07.455Z,34.25
2023-03-05T16:45:23.888Z,33.15
2023-03-05T16:47:31.024Z,33.70
2023-03-05T16:49:38.506Z,32.67
2023-03-05T16:51:45.694Z,29.45
2023-03-05T16:53:55.049Z,29.83
2023-03-05T16:56:04.020Z,31.08
2023-03-05T16:58:11.327Z,29.63
2023-03-05T17:00:23.012Z,29.30
2023-03-05T17:04:36.865Z,30.67
2023-03-05T17:06:44.148Z,32.70
2023-03-05T17:08:52.097Z,32.50
2023-03-05T17:10:59.842Z,26.95
2023-03-05T17:13:07.442Z,26.45
2023-03-05T17:15:15.075Z,26.75
2023-03-05T17:17:24.099Z,26.95
2023-03-05T17:19:31.129Z,22.90
2023-03-05T17:21:40.005Z,25.38
2023-03-05T17:23:48.309Z,22.33
2023-03-05T17:25:55.900Z,25.58
2023-03-05T17:28:02.876Z,24.33
2023-03-05T17:30:11.492Z,22.98
2023-03-05T17:32:18.726Z,29.50
2023-03-05T17:34:35.941Z,25.40
2023-03-05T17:36:43.538Z,21.05
2023-03-05T17:38:51.123Z,23.63
2023-03-05T17:40:58.463Z,19.77
2023-03-05T17:43:06.203Z,21.65
2023-03-05T17:45:14.114Z,19.95
2023-03-05T17:47:21.436Z,16.80
2023-03-05T17:49:30.308Z,20.70
2023-03-05T17:51:38.871Z,21.42
2023-03-05T17:53:46.618Z,17.92
2023-03-05T17:55:54.059Z,18.63
2023-03-05T17:58:01.546Z,18.92
2023-03-05T18:00:10.114Z,17.67
2023-03-05T18:02:18.672Z,16.48
2023-03-05T18:04:26.427Z,16.65
2023-03-05T18:06:36.367Z,18.77
2023-03-05T18:08:43.701Z,19.98
2023-03-05T18:10:50.833Z,18.27
2023-03-05T18:12:58.062Z,17.42
2023-03-05T18:15:05.196Z,15.20
2023-03-05T18:17:12.632Z,20.15
2023-03-05T18:19:19.763Z,18.75
2023-03-05T18:21:29.247Z,16.00
2023-03-05T18:23:38.480Z,20.83
2023-03-05T18:25:46.069Z,20.08
2023-03-05T18:27:53.095Z,19.05
2023-03-05T18:30:00.484Z,18.05
2023-03-05T18:32:07.484Z,18.35
2023-03-05T18:34:14.637Z,18.98
2023-03-05T18:36:21.979Z,19.25
2023-03-05T18:38:32.543Z,18.58
2023-03-05T18:40:42.685Z,17.30
2023-03-05T18:42:49.874Z,18.73
2023-03-05T18:44:57.977Z,19.17
2023-03-05T18:47:05.610Z,24.17
2023-03-05T18:49:12.945Z,18.15
2023-03-05T18:51:22.694Z,17.77
2023-03-05T18:53:29.622Z,17.83
2023-03-05T18:55:36.947Z,17.92
2023-03-05T18:57:45.724Z,19.17
2023-03-05T18:59:53.103Z,17.85
2023-03-05T19:02:00.234Z,17.98
2023-03-05T19:04:08.348Z,18.23
2023-03-05T19:06:15.672Z,18.25
2023-03-05T19:08:23.016Z,19.08
2023-03-05T19:10:30.347Z,18.17
2023-03-05T19:12:47.306Z,18.23
2023-03-05T19:15:07.646Z,18.75
2023-03-05T19:17:14.829Z,17.67
2023-03-05T19:19:24.978Z,17.58
2023-03-05T19:21:33.337Z,17.85
2023-03-05T19:23:40.520Z,16.70
2023-03-05T19:25:48.215Z,19.20
2023-03-05T19:27:55.294Z,16.05
2023-03-05T19:30:02.988Z,17.73
2023-03-05T19:32:13.373Z,17.83
2023-03-05T19:34:21.395Z,16.52
2023-03-05T19:36:28.784Z,15.90
2023-03-05T19:38:36.170Z,18.33
2023-03-05T19:40:44.890Z,17.80
2023-03-05T19:42:51.860Z,16.63
2023-03-05T19:45:00.183Z,17.77
2023-03-05T19:47:07.608Z,17.13
2023-03-05T19:49:16.731Z,15.40
2023-03-05T19:51:24.991Z,17.05
2023-03-05T19:53:33.081Z,16.30
2023-03-05T19:55:43.654Z,16.83
2023-03-05T19:57:50.940Z,16.55
2023-03-05T19:59:57.967Z,20.83
2023-03-05T20:02:05.391Z,20.00
2023-03-05T20:04:14.312Z,16.35
2023-03-05T20:06:23.865Z,17.25
2023-03-05T20:08:30.790Z,16.55
2023-03-05T20:10:38.069Z,17.75
2023-03-05T20:12:48.737Z,16.83
2023-03-05T20:14:55.972Z,21.15
2023-03-05T20:17:03.098Z,22.92
2023-03-05T20:19:11.867Z,17.30
2023-03-05T20:21:24.224Z,16.30
2023-03-05T20:23:32.018Z,21.63
2023-03-05T20:25:41.093Z,19.92
2023-03-05T20:27:48.581Z,20.88
2023-03-05T20:29:55.712Z,17.42
2023-03-05T20:32:03.218Z,17.80
2023-03-05T20:34:11.663Z,18.60
2023-03-05T20:36:18.960Z,18.98
2023-03-05T20:38:30.534Z,18.70
2023-03-05T20:40:37.970Z,15.65
2023-03-05T20:42:45.049Z,16.02
2023-03-05T20:44:52.477Z,19.73
2023-03-05T20:47:46.042Z,17.40
2023-03-05T20:49:57.028Z,17.77
2023-03-05T20:52:03.954Z,17.40
2023-03-05T20:54:15.883Z,18.63
2023-03-05T20:56:22.873Z,17.58
2023-03-05T20:58:30.057Z,20.30
2023-03-05T21:00:37.148Z,20.00
2023-03-05T21:02:44.523Z,18.52
2023-03-05T21:04:51.607Z,16.63
2023-03-05T21:06:58.942Z,19.52
2023-03-05T21:09:06.273Z,18.70
2023-03-05T21:11:15.814Z,22.88
2023-03-05T21:13:22.845Z,21.10
2023-03-05T21:15:31.933Z,20.27
2023-03-05T21:17:39.045Z,22.38
2023-03-05T21:19:46.336Z,20.85
2023-03-05T21:21:53.461Z,17.35
2023-03-05T21:24:00.948Z,22.77
2023-03-05T21:26:08.385Z,17.88
2023-03-05T21:28:19.819Z,19.00
2023-03-05T21:30:32.423Z,18.77
2023-03-05T21:32:40.108Z,21.10
2023-03-05T21:34:47.664Z,18.15
2023-03-05T21:36:54.841Z,20.50
2023-03-05T21:39:01.872Z,16.77
2023-03-05T21:41:09.622Z,19.98
2023-03-05T21:43:19.773Z,20.40
2023-03-05T21:45:30.379Z,22.52
2023-03-05T21:47:38.074Z,21.48
2023-03-05T21:49:45.456Z,18.55
2023-03-05T21:52:10.302Z,19.35
2023-03-05T21:54:17.591Z,20.42
2023-03-05T21:56:32.084Z,22.65
2023-03-05T21:58:40.908Z,20.33
2023-03-05T22:00:48.067Z,21.70
2023-03-05T22:02:55.472Z,18.35
2023-03-05T22:05:02.548Z,17.42
2023-03-05T22:07:09.989Z,23.02
2023-03-05T22:09:17.230Z,20.42
2023-03-05T22:11:24.694Z,20.33
2023-03-05T22:13:31.633Z,19.15
2023-03-05T22:15:46.033Z,22.60
2023-03-05T22:17:53.419Z,20.85
2023-03-05T22:20:00.807Z,21.60
2023-03-05T22:22:07.884Z,20.88
2023-03-05T22:24:15.270Z,21.90
2023-03-05T22:26:22.248Z,24.73
2023-03-05T22:28:30.438Z,22.00
2023-03-05T22:30:39.344Z,22.23
2023-03-05T22:32:46.862Z,26.92
2023-03-05T22:34:57.833Z,29.10
2023-03-05T22:37:05.117Z,30.05
2023-03-05T22:39:12.184Z,30.48
2023-03-05T22:41:20.709Z,28.00
2023-03-05T22:43:27.744Z,34.13
2023-03-05T22:45:35.336Z,35.45
2023-03-05T22:47:44.251Z,34.45
2023-03-05T22:49:51.543Z,35.22
2023-03-05T22:51:58.868Z,36.97
2023-03-05T22:54:06.102Z,37.38
2023-03-05T22:56:15.129Z,32.60
2023-03-05T22:58:22.103Z,30.85
2023-03-05T23:00:29.617Z,31.08
2023-03-05T23:02:36.521Z,31.08
2023-03-05T23:04:53.691Z,31.05
2023-03-05T23:07:00.719Z,30.00
2023-03-05T23:09:08.208Z,30.27
2023-03-05T23:11:15.851Z,29.05
2023-03-05T23:13:22.986Z,32.67
2023-03-05T23:15:31.512Z,29.17
2023-03-05T23:17:39.048Z,28.13
2023-03-05T23:19:46.221Z,33.58
2023-03-05T23:21:55.402Z,30.90
2023-03-05T23:24:02.374Z,26.88
2023-03-05T23:26:09.819Z,28.88
2023-03-05T23:28:16.904Z,31.25
2023-03-05T23:30:25.252Z,33.05
2023-03-05T23:32:32.857Z,32.22
2023-03-05T23:34:40.040Z,33.70
2023-03-05T23:36:47.003Z,31.48
2023-03-05T23:38:58.635Z,35.38
2023-03-05T23:41:06.021Z,32.88
2023-03-05T23:43:13.774Z,32.75
2023-03-05T23:45:22.129Z,31.92
2023-03-05T23:47:29.818Z,34.38
2023-03-05T23:49:37.008Z,33.78
2023-03-05T23:51:44.586Z,29.38
2023-03-05T23:53:51.563Z,32.13
2023-03-05T23:56:00.797Z,32.90
2023-03-05T23:58:07.774Z,35.83
